Time;durP1;ratioP1;P1;durP2;ratioP2;P2;SDS_P1;SDS_P2;PMS_P1;PMS_P2;Temp;Humidity;BMP_temperature;BMP_pressure;BME280_temperature;BME280_humidity;BME280_pressure;Samples;Min_cycle;Max_cycle;Signal;HPM_P1;HPM_P2
2023/06/26 00:01:42;;;;;;;;;;;23.40;86.90;;;;;;5062939;28;19928;-64
2023/06/26 00:04:07;;;;;;;;;;;23.40;87.00;;;;;;5086022;28;19928;-63
2023/06/26 00:06:33;;;;;;;;;;;23.40;87.40;;;;;;5072502;28;19920;-64
2023/06/26 00:08:58;;;;;;;;;;;23.40;87.30;;;;;;5076067;28;19974;-64
2023/06/26 00:11:24;;;;;;;;;;;23.30;87.10;;;;;;5088306;28;19966;-63
2023/06/26 00:13:50;;;;;;;;;;;23.30;87.20;;;;;;5089828;28;19920;-63
2023/06/26 00:16:19;;;;;;;;;;;23.30;88.00;;;;;;5089751;28;19926;-64
2023/06/26 00:18:44;;;;;;;;;;;23.30;87.80;;;;;;5086048;28;19927;-64
2023/06/26 00:21:10;;;;;;;;;;;23.30;87.90;;;;;;5083088;28;19931;-63
2023/06/26 00:23:36;;;;;;;;;;;23.20;88.30;;;;;;5086666;28;19920;-64
2023/06/26 00:26:03;;;;;;;;;;;23.20;88.20;;;;;;5079660;28;20366;-63
2023/06/26 00:28:28;;;;;;;;;;;23.20;88.60;;;;;;5087368;28;20011;-64
2023/06/26 00:30:54;;;;;;;;;;;23.20;87.50;;;;;;5089398;28;20027;-64
2023/06/26 00:33:19;;;;;;;;;;;23.10;88.20;;;;;;5073625;28;19969;-64
2023/06/26 00:35:45;;;;;;;;;;;23.10;88.70;;;;;;5093871;28;20337;-64
2023/06/26 00:38:10;;;;;;;;;;;23.10;89.10;;;;;;5085271;28;19971;-64
2023/06/26 00:40:36;;;;;;;;;;;23.10;88.70;;;;;;5075804;28;19930;-64
2023/06/26 00:43:01;;;;;;;;;;;23.10;89.50;;;;;;5075024;28;19930;-64
2023/06/26 00:45:28;;;;;;;;;;;23.00;89.20;;;;;;5088269;28;19977;-64
2023/06/26 00:47:54;;;;;;;;;;;23.00;89.80;;;;;;5087194;28;20410;-64
2023/06/26 00:50:20;;;;;;;;;;;23.00;90.00;;;;;;5088889;28;20003;-64
2023/06/26 00:52:46;;;;;;;;;;;22.90;89.90;;;;;;5079016;28;20007;-64
2023/06/26 00:55:12;;;;;;;;;;;22.90;90.10;;;;;;5084854;28;19924;-63
2023/06/26 00:57:37;;;;;;;;;;;22.90;90.00;;;;;;5087620;28;19920;-64
2023/06/26 01:00:03;;;;;;;;;;;22.90;89.60;;;;;;5087418;28;19920;-64
2023/06/26 01:02:33;;;;;;;;;;;22.80;89.00;;;;;;5090658;28;19925;-64
2023/06/26 01:04:59;;;;;;;;;;;22.80;90.00;;;;;;5091561;28;20050;-64
2023/06/26 01:07:25;;;;;;;;;;;22.80;89.70;;;;;;5085804;28;19973;-63
2023/06/26 01:09:51;;;;;;;;;;;22.80;90.00;;;;;;5067093;28;19924;-64
2023/06/26 01:12:17;;;;;;;;;;;22.80;90.20;;;;;;5085547;28;19942;-63
2023/06/26 01:14:42;;;;;;;;;;;22.80;90.20;;;;;;5081086;28;20030;-64
2023/06/26 01:17:11;;;;;;;;;;;22.70;90.00;;;;;;5081270;28;19982;-64
2023/06/26 01:19:37;;;;;;;;;;;22.60;90.20;;;;;;5077302;28;20397;-64
2023/06/26 01:22:21;;;;;;;;;;;22.70;90.10;;;;;;5082968;28;19924;-63
2023/06/26 01:25:17;;;;;;;;;;;22.70;90.10;;;;;;5062434;28;19920;-63
2023/06/26 01:27:44;;;;;;;;;;;22.70;90.40;;;;;;5079050;28;20007;-64
2023/06/26 01:30:10;;;;;;;;;;;22.60;90.30;;;;;;5085318;28;20010;-64
2023/06/26 01:32:36;;;;;;;;;;;22.60;90.50;;;;;;5083914;28;19920;-64
2023/06/26 01:35:02;;;;;;;;;;;22.60;90.60;;;;;;5092462;28;19946;-64
2023/06/26 01:37:27;;;;;;;;;;;22.60;90.80;;;;;;5083029;28;19920;-64
2023/06/26 01:39:53;;;;;;;;;;;22.60;90.40;;;;;;5086019;28;19920;-64
2023/06/26 01:42:18;;;;;;;;;;;22.60;90.80;;;;;;5087280;28;20011;-64
2023/06/26 01:44:46;;;;;;;;;;;22.60;90.60;;;;;;5083312;28;19987;-64
2023/06/26 01:47:17;;;;;;;;;;;22.50;90.50;;;;;;5092484;28;19920;-64
2023/06/26 01:49:42;;;;;;;;;;;22.60;90.60;;;;;;5088441;28;20344;-64
2023/06/26 01:52:27;;;;;;;;;;;22.50;90.90;;;;;;5092483;28;19920;-64
2023/06/26 01:54:58;;;;;;;;;;;22.50;90.80;;;;;;5069524;28;19920;-64
2023/06/26 01:57:26;;;;;;;;;;;22.50;90.80;;;;;;5091791;28;19959;-64
2023/06/26 01:59:52;;;;;;;;;;;22.40;90.80;;;;;;5084610;28;20236;-64
2023/06/26 02:02:18;;;;;;;;;;;22.40;91.00;;;;;;5085240;28;19924;-64
2023/06/26 02:04:43;;;;;;;;;;;22.40;90.90;;;;;;5075296;28;20466;-64
2023/06/26 02:07:09;;;;;;;;;;;22.40;90.80;;;;;;5089800;28;19924;-64
2023/06/26 02:09:35;;;;;;;;;;;22.30;91.10;;;;;;5085263;28;19923;-64
2023/06/26 02:12:00;;;;;;;;;;;22.30;91.30;;;;;;5073612;28;19977;-64
2023/06/26 02:14:26;;;;;;;;;;;22.20;91.10;;;;;;5090538;28;19927;-64
2023/06/26 02:16:51;;;;;;;;;;;22.20;91.30;;;;;;5061138;28;19920;-64
2023/06/26 02:19:21;;;;;;;;;;;22.20;91.50;;;;;;5063357;28;20293;-64
2023/06/26 02:21:49;;;;;;;;;;;22.10;91.60;;;;;;5059901;28;20019;-64
2023/06/26 02:24:15;;;;;;;;;;;22.10;91.60;;;;;;5087847;28;19924;-64
2023/06/26 02:26:40;;;;;;;;;;;22.10;91.70;;;;;;5072458;28;20291;-64
2023/06/26 02:29:06;;;;;;;;;;;22.10;91.70;;;;;;5089681;28;19973;-64
2023/06/26 02:31:32;;;;;;;;;;;22.00;92.00;;;;;;5084024;28;19920;-64
2023/06/26 02:33:57;;;;;;;;;;;22.00;91.90;;;;;;5090674;28;20421;-64
2023/06/26 02:36:23;;;;;;;;;;;21.90;92.10;;;;;;5077201;28;19931;-64
2023/06/26 02:38:48;;;;;;;;;;;22.00;92.20;;;;;;5089099;28;19942;-64
2023/06/26 02:41:14;;;;;;;;;;;21.90;92.10;;;;;;5090686;28;20301;-64
2023/06/26 02:43:39;;;;;;;;;;;21.90;92.00;;;;;;5084134;28;20461;-64
2023/06/26 02:46:05;;;;;;;;;;;21.90;92.50;;;;;;5082753;28;20306;-64
2023/06/26 02:48:30;;;;;;;;;;;21.90;92.50;;;;;;5090294;28;19931;-64
2023/06/26 02:50:56;;;;;;;;;;;21.90;92.30;;;;;;5089365;28;19966;-64
2023/06/26 02:53:21;;;;;;;;;;;21.90;92.40;;;;;;5083047;28;19920;-64
2023/06/26 02:55:47;;;;;;;;;;;21.80;92.40;;;;;;5084501;28;19943;-64
2023/06/26 02:58:13;;;;;;;;;;;21.80;92.80;;;;;;5066611;28;19928;-64
2023/06/26 03:00:41;;;;;;;;;;;21.70;92.60;;;;;;5068893;28;19920;-64
2023/06/26 03:03:07;;;;;;;;;;;21.70;92.40;;;;;;5070141;28;20421;-64
2023/06/26 03:05:32;;;;;;;;;;;21.70;92.70;;;;;;5064682;28;20378;-64
2023/06/26 03:07:58;;;;;;;;;;;21.70;92.60;;;;;;5077685;28;19920;-64
2023/06/26 03:10:24;;;;;;;;;;;21.70;92.80;;;;;;5082333;28;19924;-64
2023/06/26 03:12:49;;;;;;;;;;;21.70;92.90;;;;;;5080273;28;19981;-64
2023/06/26 03:15:15;;;;;;;;;;;21.60;93.00;;;;;;5074891;28;20390;-64
2023/06/26 03:17:40;;;;;;;;;;;21.60;93.00;;;;;;5080863;28;19945;-64
2023/06/26 03:20:06;;;;;;;;;;;21.60;93.20;;;;;;5073944;28;20293;-64
2023/06/26 03:22:33;;;;;;;;;;;21.50;93.30;;;;;;5075032;28;19978;-64
2023/06/26 03:24:59;;;;;;;;;;;21.40;93.20;;;;;;5080213;28;19934;-64
2023/06/26 03:27:25;;;;;;;;;;;21.40;93.80;;;;;;5086450;28;20843;-64
2023/06/26 03:29:51;;;;;;;;;;;21.40;94.00;;;;;;5088890;28;19920;-64
2023/06/26 03:32:17;;;;;;;;;;;21.40;93.90;;;;;;5087108;28;19977;-64
2023/06/26 03:34:42;;;;;;;;;;;21.40;93.90;;;;;;5077590;28;20513;-64
2023/06/26 03:37:08;;;;;;;;;;;21.40;93.90;;;;;;5063888;28;19920;-64
2023/06/26 03:39:33;;;;;;;;;;;21.30;94.20;;;;;;5081443;28;19932;-64
2023/06/26 03:42:02;;;;;;;;;;;21.30;94.70;;;;;;5078040;28;19925;-64
2023/06/26 03:44:27;;;;;;;;;;;21.30;94.60;;;;;;5087023;28;19967;-64
2023/06/26 03:46:53;;;;;;;;;;;21.20;95.00;;;;;;5089941;28;20034;-64
2023/06/26 03:49:19;;;;;;;;;;;21.30;95.20;;;;;;5086738;28;19970;-64
2023/06/26 03:51:45;;;;;;;;;;;21.30;95.40;;;;;;5087937;28;20308;-64
2023/06/26 03:54:10;;;;;;;;;;;21.30;95.40;;;;;;5083111;28;19930;-64
2023/06/26 03:56:36;;;;;;;;;;;21.30;95.80;;;;;;5081732;28;20336;-64
2023/06/26 03:59:01;;;;;;;;;;;21.40;95.90;;;;;;5084035;28;20297;-64
2023/06/26 04:01:27;;;;;;;;;;;21.40;96.00;;;;;;5087550;28;20030;-65
2023/06/26 04:03:53;;;;;;;;;;;21.50;96.30;;;;;;5081126;28;19928;-64
2023/06/26 04:06:19;;;;;;;;;;;21.50;96.30;;;;;;5075287;28;19920;-64
2023/06/26 04:08:44;;;;;;;;;;;21.60;96.50;;;;;;5082565;28;19996;-64
2023/06/26 04:11:10;;;;;;;;;;;21.50;96.70;;;;;;5071759;28;20015;-64
2023/06/26 04:13:35;;;;;;;;;;;21.60;96.70;;;;;;5075782;28;19942;-64
2023/06/26 04:16:01;;;;;;;;;;;21.60;96.70;;;;;;5089213;28;19920;-64
2023/06/26 04:18:27;;;;;;;;;;;21.60;96.80;;;;;;5081570;28;19927;-64
2023/06/26 04:21:08;;;;;;;;;;;21.60;97.00;;;;;;5081962;28;19935;-64
2023/06/26 04:23:34;;;;;;;;;;;21.60;97.30;;;;;;5059113;28;19935;-65
2023/06/26 04:26:00;;;;;;;;;;;21.50;97.50;;;;;;5061290;28;20333;-65
2023/06/26 04:28:25;;;;;;;;;;;21.60;97.80;;;;;;5040781;28;19924;-64
2023/06/26 04:30:51;;;;;;;;;;;21.60;98.20;;;;;;5086131;28;19965;-64
2023/06/26 04:33:16;;;;;;;;;;;21.50;98.50;;;;;;5074543;28;19924;-64
2023/06/26 04:35:44;;;;;;;;;;;21.50;98.90;;;;;;5082780;28;19924;-64
2023/06/26 04:38:10;;;;;;;;;;;21.50;99.20;;;;;;5081998;28;19955;-64
2023/06/26 04:40:35;;;;;;;;;;;21.50;99.70;;;;;;5087028;28;19997;-64
2023/06/26 04:43:01;;;;;;;;;;;21.40;99.90;;;;;;5069862;28;19924;-64
2023/06/26 04:45:26;;;;;;;;;;;21.40;99.90;;;;;;5082891;28;19926;-64
2023/06/26 04:47:52;;;;;;;;;;;21.50;99.90;;;;;;5084504;28;19999;-64
2023/06/26 04:50:19;;;;;;;;;;;21.60;99.90;;;;;;5077818;28;20619;-64
2023/06/26 04:52:44;;;;;;;;;;;21.60;99.90;;;;;;5063971;28;19921;-64
2023/06/26 04:55:10;;;;;;;;;;;21.60;99.90;;;;;;5077729;28;20011;-64
2023/06/26 04:57:35;;;;;;;;;;;21.60;99.90;;;;;;5087603;28;20377;-64
2023/06/26 05:00:01;;;;;;;;;;;21.60;99.90;;;;;;5088345;28;19978;-64
2023/06/26 05:02:27;;;;;;;;;;;21.60;99.90;;;;;;5081319;28;20011;-64
2023/06/26 05:04:52;;;;;;;;;;;21.50;99.90;;;;;;5088895;28;20004;-64
2023/06/26 05:07:18;;;;;;;;;;;21.50;99.90;;;;;;5069829;28;19924;-64
2023/06/26 05:09:43;;;;;;;;;;;21.50;99.90;;;;;;5084191;28;19973;-64
2023/06/26 05:12:09;;;;;;;;;;;21.40;99.90;;;;;;5092851;28;19920;-64
2023/06/26 05:14:34;;;;;;;;;;;21.40;99.90;;;;;;5087558;28;19924;-64
2023/06/26 05:17:00;;;;;;;;;;;21.50;99.90;;;;;;5078203;28;19920;-64
2023/06/26 05:19:25;;;;;;;;;;;21.50;99.90;;;;;;5064953;28;19942;-64
2023/06/26 05:21:51;;;;;;;;;;;21.50;99.90;;;;;;5079367;28;19925;-64
2023/06/26 05:24:19;;;;;;;;;;;21.60;99.90;;;;;;5067398;28;19920;-64
2023/06/26 05:26:44;;;;;;;;;;;21.60;99.90;;;;;;5086710;28;20370;-64
2023/06/26 05:29:10;;;;;;;;;;;21.50;99.90;;;;;;5083665;28;19920;-64
2023/06/26 05:31:39;;;;;;;;;;;21.50;99.90;;;;;;5084775;28;19973;-64
2023/06/26 05:34:05;;;;;;;;;;;21.50;99.90;;;;;;5079824;28;19924;-64
2023/06/26 05:36:32;;;;;;;;;;;21.50;99.90;;;;;;5086272;28;19928;-64
2023/06/26 05:38:58;;;;;;;;;;;21.40;99.90;;;;;;5081578;28;20443;-64
2023/06/26 05:41:24;;;;;;;;;;;21.40;99.90;;;;;;5076688;28;19924;-64
2023/06/26 05:43:49;;;;;;;;;;;21.50;99.90;;;;;;5085115;28;19943;-64
2023/06/26 05:46:15;;;;;;;;;;;21.50;99.90;;;;;;5083402;28;20314;-65
2023/06/26 05:48:41;;;;;;;;;;;21.60;99.90;;;;;;5066943;28;19927;-64
2023/06/26 05:51:07;;;;;;;;;;;21.70;99.90;;;;;;5075566;28;19921;-64
2023/06/26 05:53:32;;;;;;;;;;;21.80;99.90;;;;;;5075731;28;19928;-64
2023/06/26 05:55:58;;;;;;;;;;;21.90;99.90;;;;;;5090539;28;20018;-64
2023/06/26 05:58:25;;;;;;;;;;;21.90;99.90;;;;;;5090751;28;19928;-64
2023/06/26 06:00:51;;;;;;;;;;;21.90;99.90;;;;;;5091571;28;19927;-64
2023/06/26 06:03:16;;;;;;;;;;;21.90;99.90;;;;;;5080796;28;19924;-64
2023/06/26 06:05:42;;;;;;;;;;;21.90;99.90;;;;;;5087189;28;19920;-64
2023/06/26 06:08:07;;;;;;;;;;;22.00;99.90;;;;;;5089560;28;19977;-64
2023/06/26 06:10:33;;;;;;;;;;;22.00;99.90;;;;;;5076749;28;19921;-64
2023/06/26 06:12:59;;;;;;;;;;;22.00;99.90;;;;;;5091448;28;19921;-64
2023/06/26 06:15:24;;;;;;;;;;;22.00;99.90;;;;;;5079424;28;20030;-64
2023/06/26 06:17:49;;;;;;;;;;;22.00;99.90;;;;;;5086383;28;19925;-64
2023/06/26 06:20:17;;;;;;;;;;;21.90;99.90;;;;;;5091755;28;19920;-64
2023/06/26 06:22:42;;;;;;;;;;;21.80;99.90;;;;;;5065184;28;19924;-64
2023/06/26 06:25:08;;;;;;;;;;;21.70;99.90;;;;;;5090403;28;19920;-64
2023/06/26 06:27:33;;;;;;;;;;;21.70;99.90;;;;;;5079749;28;20411;-64
2023/06/26 06:29:59;;;;;;;;;;;21.70;99.90;;;;;;5082107;28;19962;-64
2023/06/26 06:32:24;;;;;;;;;;;21.70;99.90;;;;;;5082574;28;19924;-64
2023/06/26 06:34:50;;;;;;;;;;;21.70;99.70;;;;;;5062716;28;19920;-65
2023/06/26 06:37:15;;;;;;;;;;;21.90;99.90;;;;;;5077301;28;19924;-64
2023/06/26 06:39:41;;;;;;;;;;;21.90;99.40;;;;;;5080375;28;19935;-64
2023/06/26 06:42:07;;;;;;;;;;;21.90;98.80;;;;;;5081881;28;20378;-65
2023/06/26 06:44:32;;;;;;;;;;;21.90;98.80;;;;;;5078521;28;20442;-65
2023/06/26 06:46:58;;;;;;;;;;;21.80;98.90;;;;;;5083851;28;19935;-65
2023/06/26 06:49:23;;;;;;;;;;;21.70;98.80;;;;;;5082282;28;20290;-64
2023/06/26 06:51:49;;;;;;;;;;;21.70;98.80;;;;;;5091467;28;20516;-64
2023/06/26 06:54:16;;;;;;;;;;;21.70;99.00;;;;;;5086118;28;20286;-64
2023/06/26 06:56:41;;;;;;;;;;;21.70;98.90;;;;;;5080387;28;19920;-64
2023/06/26 06:59:07;;;;;;;;;;;21.70;98.70;;;;;;5090208;28;19927;-64
2023/06/26 07:01:32;;;;;;;;;;;21.70;98.70;;;;;;5081279;28;19928;-64
2023/06/26 07:03:58;;;;;;;;;;;21.70;98.70;;;;;;5090532;28;19977;-64
2023/06/26 07:06:23;;;;;;;;;;;21.60;99.00;;;;;;5086603;28;19927;-64
2023/06/26 07:08:49;;;;;;;;;;;21.60;98.70;;;;;;5069688;28;19927;-64
2023/06/26 07:11:15;;;;;;;;;;;21.60;98.70;;;;;;5066296;28;19973;-64
2023/06/26 07:13:40;;;;;;;;;;;21.60;98.70;;;;;;5079282;28;20345;-64
2023/06/26 07:16:06;;;;;;;;;;;21.60;98.60;;;;;;5075987;28;19924;-64
2023/06/26 07:18:31;;;;;;;;;;;21.60;98.60;;;;;;5088362;28;19924;-64
2023/06/26 07:20:57;;;;;;;;;;;21.60;98.40;;;;;;5090617;28;19924;-64
2023/06/26 07:23:23;;;;;;;;;;;21.60;98.40;;;;;;5066248;28;19925;-64
2023/06/26 07:25:48;;;;;;;;;;;21.60;98.30;;;;;;5086313;28;20397;-64
2023/06/26 07:28:14;;;;;;;;;;;21.60;98.20;;;;;;5090540;28;19920;-64
2023/06/26 07:30:39;;;;;;;;;;;21.70;97.90;;;;;;5089639;28;20419;-64
2023/06/26 07:33:05;;;;;;;;;;;21.70;98.00;;;;;;5087537;28;20352;-64
2023/06/26 07:35:30;;;;;;;;;;;21.70;97.80;;;;;;5065535;28;19979;-64
2023/06/26 07:37:56;;;;;;;;;;;21.70;97.90;;;;;;5083285;28;19955;-64
2023/06/26 07:40:21;;;;;;;;;;;21.80;97.90;;;;;;5083029;28;19927;-64
2023/06/26 07:42:47;;;;;;;;;;;21.80;97.80;;;;;;5087784;28;19971;-64
2023/06/26 07:45:13;;;;;;;;;;;21.80;97.60;;;;;;5081570;28;20382;-64
2023/06/26 07:47:39;;;;;;;;;;;21.90;97.50;;;;;;5090843;28;19921;-64
2023/06/26 07:50:04;;;;;;;;;;;21.80;97.30;;;;;;5080019;28;20375;-64
2023/06/26 07:52:30;;;;;;;;;;;21.80;97.10;;;;;;5082344;28;19967;-64
2023/06/26 07:54:56;;;;;;;;;;;21.90;97.10;;;;;;5089911;28;19946;-64
2023/06/26 07:57:21;;;;;;;;;;;21.90;97.00;;;;;;5070876;28;19924;-64
2023/06/26 07:59:47;;;;;;;;;;;22.00;97.20;;;;;;5082232;28;19927;-64
2023/06/26 08:02:12;;;;;;;;;;;22.00;96.80;;;;;;5045656;28;19933;-64
2023/06/26 08:04:38;;;;;;;;;;;22.10;96.60;;;;;;5086522;28;20296;-64
2023/06/26 08:07:03;;;;;;;;;;;22.10;96.60;;;;;;5068050;28;19926;-64
2023/06/26 08:09:29;;;;;;;;;;;22.20;96.60;;;;;;5083477;28;19920;-64
2023/06/26 08:11:55;;;;;;;;;;;22.30;96.70;;;;;;5082125;28;19975;-64
2023/06/26 08:14:21;;;;;;;;;;;22.30;96.60;;;;;;5084573;28;19960;-64
2023/06/26 08:16:46;;;;;;;;;;;22.40;96.50;;;;;;5086325;28;19920;-64
2023/06/26 08:19:12;;;;;;;;;;;22.50;96.30;;;;;;5075699;28;20610;-64
2023/06/26 08:21:38;;;;;;;;;;;22.60;96.00;;;;;;5065845;28;19928;-64
2023/06/26 08:24:03;;;;;;;;;;;22.70;95.80;;;;;;5077792;28;20002;-64
2023/06/26 08:26:29;;;;;;;;;;;22.80;95.70;;;;;;5090023;28;20267;-64
2023/06/26 08:28:54;;;;;;;;;;;22.90;95.90;;;;;;5063557;28;19924;-64
2023/06/26 08:31:20;;;;;;;;;;;23.10;95.70;;;;;;5085865;28;19921;-64
2023/06/26 08:33:46;;;;;;;;;;;23.20;95.20;;;;;;5079010;28;19920;-64
2023/06/26 08:36:11;;;;;;;;;;;23.20;95.00;;;;;;5066872;28;20301;-64
2023/06/26 08:38:40;;;;;;;;;;;23.10;95.00;;;;;;5066586;28;20286;-64
2023/06/26 08:41:06;;;;;;;;;;;23.00;94.80;;;;;;5092004;28;19931;-64
2023/06/26 08:43:31;;;;;;;;;;;23.20;95.00;;;;;;5066272;28;19925;-64
2023/06/26 08:45:57;;;;;;;;;;;23.50;95.40;;;;;;5087890;28;19928;-64
2023/06/26 08:48:22;;;;;;;;;;;23.60;94.80;;;;;;5082876;28;20197;-64
2023/06/26 08:50:48;;;;;;;;;;;23.60;94.40;;;;;;5079639;28;20400;-64
2023/06/26 08:53:24;;;;;;;;;;;23.60;94.50;;;;;;5067185;28;20374;-64
2023/06/26 08:55:52;;;;;;;;;;;23.80;95.00;;;;;;5090884;28;19920;-64
2023/06/26 08:58:18;;;;;;;;;;;24.00;94.20;;;;;;5041633;28;19927;-64
2023/06/26 09:00:44;;;;;;;;;;;24.10;93.90;;;;;;5058844;28;19920;-64
2023/06/26 09:03:09;;;;;;;;;;;24.20;93.20;;;;;;5090113;28;19924;-64
2023/06/26 09:05:35;;;;;;;;;;;24.20;93.10;;;;;;5065637;28;19924;-64
2023/06/26 09:08:01;;;;;;;;;;;24.00;92.80;;;;;;5089286;28;19920;-64
2023/06/26 09:10:26;;;;;;;;;;;23.80;92.80;;;;;;5088471;28;20294;-64
2023/06/26 09:12:54;;;;;;;;;;;23.80;93.70;;;;;;5086826;28;19998;-64
2023/06/26 09:15:20;;;;;;;;;;;24.10;94.00;;;;;;5083122;28;19974;-64
2023/06/26 09:17:47;;;;;;;;;;;24.40;93.50;;;;;;5080168;28;19920;-64
2023/06/26 09:20:14;;;;;;;;;;;24.50;92.90;;;;;;5085553;28;19935;-64
2023/06/26 09:22:41;;;;;;;;;;;24.40;92.60;;;;;;5083081;28;19924;-64
2023/06/26 09:25:07;;;;;;;;;;;24.20;92.60;;;;;;5086456;28;19921;-64
2023/06/26 09:27:33;;;;;;;;;;;24.30;93.50;;;;;;5074225;28;19950;-64
2023/06/26 09:29:58;;;;;;;;;;;24.60;93.10;;;;;;5090410;28;20290;-64
2023/06/26 09:32:24;;;;;;;;;;;24.60;92.60;;;;;;5085332;28;20092;-64
2023/06/26 09:34:52;;;;;;;;;;;24.60;91.90;;;;;;5073434;28;19974;-65
2023/06/26 09:37:17;;;;;;;;;;;24.70;92.40;;;;;;5079284;28;19927;-65
2023/06/26 09:39:43;;;;;;;;;;;25.00;92.40;;;;;;5081647;28;19920;-65
2023/06/26 09:42:09;;;;;;;;;;;25.20;92.30;;;;;;5057384;28;19941;-65
2023/06/26 09:44:35;;;;;;;;;;;25.30;91.60;;;;;;5083843;28;19931;-65
2023/06/26 09:47:03;;;;;;;;;;;25.40;91.50;;;;;;5080065;28;20325;-65
2023/06/26 09:49:29;;;;;;;;;;;25.70;90.40;;;;;;5087083;28;19927;-65
2023/06/26 09:51:55;;;;;;;;;;;25.70;89.00;;;;;;5064719;28;20286;-64
2023/06/26 09:54:21;;;;;;;;;;;25.40;86.40;;;;;;5075753;28;20425;-65
2023/06/26 09:56:47;;;;;;;;;;;25.10;86.10;;;;;;5077475;28;19920;-65
2023/06/26 09:59:13;;;;;;;;;;;24.90;88.90;;;;;;5069110;28;20007;-65
2023/06/26 10:01:45;;;;;;;;;;;25.00;88.70;;;;;;5078910;28;19967;-65
2023/06/26 10:04:10;;;;;;;;;;;25.00;88.10;;;;;;5080850;28;20006;-65
2023/06/26 10:06:38;;;;;;;;;;;25.00;88.40;;;;;;5061716;28;20012;-65
2023/06/26 10:09:04;;;;;;;;;;;25.10;88.50;;;;;;5084609;28;19924;-64
2023/06/26 10:11:34;;;;;;;;;;;25.30;87.50;;;;;;5086103;28;20390;-65
2023/06/26 10:14:03;;;;;;;;;;;25.50;86.40;;;;;;5083189;28;19956;-65
2023/06/26 10:16:31;;;;;;;;;;;25.70;83.60;;;;;;5087038;28;19924;-64
2023/06/26 10:19:01;;;;;;;;;;;25.90;82.20;;;;;;5064286;28;19969;-65
2023/06/26 10:21:27;;;;;;;;;;;25.90;83.60;;;;;;5086346;28;19920;-65
2023/06/26 10:23:53;;;;;;;;;;;26.10;82.40;;;;;;5085002;28;19991;-65
2023/06/26 10:26:20;;;;;;;;;;;26.20;81.30;;;;;;5079145;28;20010;-65
2023/06/26 10:28:49;;;;;;;;;;;26.20;80.10;;;;;;5084602;28;19931;-65
2023/06/26 10:31:15;;;;;;;;;;;26.20;79.30;;;;;;5081718;28;19975;-65
2023/06/26 10:33:41;;;;;;;;;;;26.10;78.20;;;;;;5084152;28;19968;-65
2023/06/26 10:36:13;;;;;;;;;;;25.80;78.00;;;;;;5084624;28;19959;-65
2023/06/26 10:38:55;;;;;;;;;;;25.70;78.20;;;;;;5080020;28;20337;-65
2023/06/26 10:41:22;;;;;;;;;;;25.80;79.90;;;;;;5083564;28;19920;-65
2023/06/26 10:43:52;;;;;;;;;;;26.00;76.70;;;;;;5066968;28;20010;-64
2023/06/26 10:46:21;;;;;;;;;;;26.30;76.40;;;;;;5083730;28;19920;-64
2023/06/26 10:48:59;;;;;;;;;;;26.50;77.80;;;;;;5068621;28;19951;-65
2023/06/26 10:51:25;;;;;;;;;;;26.50;76.50;;;;;;5082795;28;19953;-64
2023/06/26 10:53:58;;;;;;;;;;;26.40;75.90;;;;;;5077501;28;19925;-65
2023/06/26 10:56:50;;;;;;;;;;;26.40;74.80;;;;;;5064807;28;20635;-65
2023/06/26 10:59:20;;;;;;;;;;;26.40;75.50;;;;;;5077461;28;19920;-65
2023/06/26 11:01:53;;;;;;;;;;;26.20;73.60;;;;;;5063079;28;20019;-65
2023/06/26 11:04:35;;;;;;;;;;;26.20;74.60;;;;;;5080863;28;19928;-65
2023/06/26 11:07:14;;;;;;;;;;;26.20;73.90;;;;;;5082200;28;20501;-65
2023/06/26 11:09:53;;;;;;;;;;;26.00;72.80;;;;;;5081419;28;19924;-64
2023/06/26 11:12:34;;;;;;;;;;;25.90;73.20;;;;;;5059442;28;19954;-64
2023/06/26 11:15:00;;;;;;;;;;;25.80;74.40;;;;;;5071682;28;19946;-64
2023/06/26 11:17:26;;;;;;;;;;;26.10;73.90;;;;;;5080052;28;20370;-64
2023/06/26 11:19:52;;;;;;;;;;;26.40;74.30;;;;;;5074188;28;19920;-66
2023/06/26 11:22:18;;;;;;;;;;;26.60;73.70;;;;;;5073702;28;19924;-65
2023/06/26 11:24:44;;;;;;;;;;;26.50;72.40;;;;;;5078325;28;19924;-64
2023/06/26 11:27:10;;;;;;;;;;;26.60;72.70;;;;;;5078743;28;20008;-65
2023/06/26 11:29:36;;;;;;;;;;;26.50;71.80;;;;;;5068953;28;20316;-64
2023/06/26 11:32:05;;;;;;;;;;;26.50;72.50;;;;;;5076737;28;20179;-64
2023/06/26 11:34:31;;;;;;;;;;;26.60;72.20;;;;;;5079648;28;19924;-64
2023/06/26 11:36:57;;;;;;;;;;;26.70;72.10;;;;;;5075840;28;19928;-66
2023/06/26 11:39:22;;;;;;;;;;;26.90;70.20;;;;;;5078442;28;20299;-64
2023/06/26 11:41:48;;;;;;;;;;;26.90;69.90;;;;;;5084378;28;19927;-67
2023/06/26 11:44:19;;;;;;;;;;;26.90;70.10;;;;;;5058907;28;19927;-64
2023/06/26 11:46:45;;;;;;;;;;;27.00;69.50;;;;;;5063633;28;19928;-64
2023/06/26 11:49:11;;;;;;;;;;;27.00;69.00;;;;;;5083784;28;19920;-64
2023/06/26 11:51:36;;;;;;;;;;;27.10;69.90;;;;;;5058903;28;19936;-65
2023/06/26 11:54:03;;;;;;;;;;;26.90;68.90;;;;;;5080330;28;19920;-64
2023/06/26 11:56:28;;;;;;;;;;;26.70;68.50;;;;;;5063865;28;19920;-66
2023/06/26 11:59:04;;;;;;;;;;;26.40;67.80;;;;;;5057293;28;19920;-64
2023/06/26 12:01:31;;;;;;;;;;;26.30;68.40;;;;;;5063117;28;21254;-64
2023/06/26 12:03:59;;;;;;;;;;;26.10;67.60;;;;;;5081355;28;20386;-64
2023/06/26 12:06:25;;;;;;;;;;;25.90;67.60;;;;;;5082423;28;19983;-64
2023/06/26 12:08:50;;;;;;;;;;;25.90;68.90;;;;;;5050296;28;19920;-64
2023/06/26 12:11:17;;;;;;;;;;;26.00;68.70;;;;;;5073925;28;20293;-65
2023/06/26 12:13:42;;;;;;;;;;;25.90;67.40;;;;;;5092553;28;19932;-63
2023/06/26 12:16:08;;;;;;;;;;;25.60;68.60;;;;;;5065352;28;19924;-64
2023/06/26 12:18:36;;;;;;;;;;;25.60;68.60;;;;;;5082087;28;19920;-65
2023/06/26 12:21:02;;;;;;;;;;;25.60;68.50;;;;;;5086302;28;19931;-64
2023/06/26 12:23:38;;;;;;;;;;;25.80;68.60;;;;;;5061128;28;20382;-64
2023/06/26 12:26:20;;;;;;;;;;;26.00;69.70;;;;;;5069515;28;19920;-64
2023/06/26 12:28:46;;;;;;;;;;;26.20;68.10;;;;;;5086276;28;19920;-65
2023/06/26 12:31:13;;;;;;;;;;;26.40;66.80;;;;;;5087518;28;19920;-65
2023/06/26 12:33:38;;;;;;;;;;;26.60;67.50;;;;;;5073460;28;19921;-64
2023/06/26 12:36:04;;;;;;;;;;;26.80;67.00;;;;;;5062055;28;20370;-66
2023/06/26 12:38:33;;;;;;;;;;;27.00;64.80;;;;;;5059734;28;19920;-64
2023/06/26 12:40:58;;;;;;;;;;;26.90;63.30;;;;;;5080108;28;20429;-64
2023/06/26 12:43:25;;;;;;;;;;;26.60;64.10;;;;;;5082378;28;19931;-64
2023/06/26 12:45:54;;;;;;;;;;;26.40;65.20;;;;;;5074277;28;19924;-65
2023/06/26 12:48:20;;;;;;;;;;;26.40;65.00;;;;;;5086897;28;19998;-64
2023/06/26 12:50:45;;;;;;;;;;;26.30;63.90;;;;;;5069631;28;19974;-64
2023/06/26 12:53:11;;;;;;;;;;;26.40;64.90;;;;;;5069747;28;19924;-63
2023/06/26 12:55:37;;;;;;;;;;;26.70;65.80;;;;;;5080446;28;19921;-65
2023/06/26 12:58:02;;;;;;;;;;;26.80;66.10;;;;;;5081221;28;19935;-64
2023/06/26 13:00:28;;;;;;;;;;;26.90;66.00;;;;;;5084962;28;19920;-64
2023/06/26 13:02:53;;;;;;;;;;;26.70;63.90;;;;;;5086585;28;19998;-66
2023/06/26 13:05:19;;;;;;;;;;;26.60;64.90;;;;;;5065204;28;20298;-64
2023/06/26 13:07:44;;;;;;;;;;;26.50;64.90;;;;;;5073927;28;19925;-65
2023/06/26 13:10:10;;;;;;;;;;;26.40;64.30;;;;;;5080778;28;19924;-64
2023/06/26 13:12:35;;;;;;;;;;;26.50;64.70;;;;;;5079685;28;19920;-64
2023/06/26 13:15:01;;;;;;;;;;;26.50;64.90;;;;;;5079671;28;21085;-64
2023/06/26 13:17:26;;;;;;;;;;;26.60;64.90;;;;;;5083333;28;20350;-63
2023/06/26 13:19:52;;;;;;;;;;;26.60;64.70;;;;;;5084851;28;20381;-65
2023/06/26 13:22:17;;;;;;;;;;;26.70;65.10;;;;;;5083330;28;19947;-64
2023/06/26 13:24:43;;;;;;;;;;;26.50;65.00;;;;;;5065650;28;20305;-65
2023/06/26 13:27:08;;;;;;;;;;;26.30;65.40;;;;;;5075129;28;20371;-63
2023/06/26 13:29:34;;;;;;;;;;;26.00;65.40;;;;;;5086232;28;19920;-64
2023/06/26 13:31:59;;;;;;;;;;;25.90;65.80;;;;;;5067923;28;20310;-64
2023/06/26 13:34:27;;;;;;;;;;;25.80;65.70;;;;;;5083857;28;19924;-63
2023/06/26 13:36:53;;;;;;;;;;;25.70;65.90;;;;;;5085932;28;19920;-64
2023/06/26 13:39:18;;;;;;;;;;;25.70;66.50;;;;;;5083799;28;20003;-63
2023/06/26 13:41:44;;;;;;;;;;;25.80;66.80;;;;;;5058345;28;20479;-63
2023/06/26 13:44:10;;;;;;;;;;;25.90;66.70;;;;;;5076908;28;20448;-64
2023/06/26 13:46:35;;;;;;;;;;;25.90;65.10;;;;;;5057901;28;19920;-66
2023/06/26 13:49:01;;;;;;;;;;;25.90;63.80;;;;;;5063672;28;19920;-64
2023/06/26 13:51:26;;;;;;;;;;;25.90;63.90;;;;;;5067403;28;19931;-65
2023/06/26 13:53:52;;;;;;;;;;;25.70;63.10;;;;;;5082068;28;19974;-65
2023/06/26 13:56:17;;;;;;;;;;;25.70;64.20;;;;;;5059816;28;20530;-64
2023/06/26 13:58:43;;;;;;;;;;;25.70;64.30;;;;;;5053928;28;19927;-64
2023/06/26 14:01:09;;;;;;;;;;;25.80;64.70;;;;;;5081172;28;20007;-64
2023/06/26 14:03:35;;;;;;;;;;;25.70;65.00;;;;;;5086486;28;20027;-65
2023/06/26 14:06:00;;;;;;;;;;;25.70;65.30;;;;;;5073049;28;19932;-65
2023/06/26 14:08:26;;;;;;;;;;;25.60;65.60;;;;;;5072420;28;20433;-64
2023/06/26 14:10:51;;;;;;;;;;;25.50;66.60;;;;;;5077396;28;19973;-65
2023/06/26 14:13:17;;;;;;;;;;;25.50;67.10;;;;;;5065657;28;19955;-64